createdAt,value
2018-05-16T00:02:10.038Z,8.80
2018-05-16T00:04:37.041Z,9.23
2018-05-16T00:07:03.167Z,8.23
2018-05-16T00:09:29.145Z,8.43
2018-05-16T00:11:55.189Z,8.37
2018-05-16T00:14:21.192Z,8.67
2018-05-16T00:16:47.229Z,9.03
2018-05-16T00:19:13.265Z,9.07
2018-05-16T00:21:39.284Z,10.70
2018-05-16T00:24:05.264Z,9.03
2018-05-16T00:26:31.181Z,9.63
2018-05-16T00:28:57.158Z,8.73
2018-05-16T00:31:23.156Z,8.90
2018-05-16T00:33:49.169Z,9.30
2018-05-16T00:36:15.147Z,10.67
2018-05-16T00:38:41.136Z,9.63
2018-05-16T00:41:07.153Z,10.83
2018-05-16T00:43:33.151Z,9.37
2018-05-16T00:45:59.901Z,8.77
2018-05-16T00:48:25.948Z,9.40
2018-05-16T00:51:04.246Z,8.40
2018-05-16T00:53:30.314Z,9.70
2018-05-16T00:55:56.397Z,9.43
2018-05-16T00:58:22.371Z,9.77
2018-05-16T01:00:51.168Z,9.30
2018-05-16T01:03:17.176Z,9.80
2018-05-16T01:05:43.154Z,10.57
2018-05-16T01:08:09.246Z,10.27
2018-05-16T01:10:35.251Z,11.00
2018-05-16T01:13:01.251Z,8.97
2018-05-16T01:15:27.193Z,8.90
2018-05-16T01:17:53.292Z,8.87
2018-05-16T01:20:19.259Z,9.00
2018-05-16T01:22:45.284Z,9.00
2018-05-16T01:25:11.379Z,10.30
2018-05-16T01:27:37.377Z,9.53
2018-05-16T01:30:03.348Z,8.83
2018-05-16T01:32:29.346Z,9.20
2018-05-16T01:34:55.314Z,8.13
2018-05-16T01:37:21.355Z,9.50
2018-05-16T01:39:47.456Z,9.63
2018-05-16T01:42:13.444Z,11.57
2018-05-16T01:44:39.390Z,8.83
2018-05-16T01:47:06.957Z,8.90
2018-05-16T01:49:32.949Z,8.70
2018-05-16T01:51:59.293Z,11.27
2018-05-16T01:54:26.040Z,8.40
2018-05-16T01:56:52.081Z,11.40
2018-05-16T01:59:18.077Z,13.00
2018-05-16T02:01:44.055Z,9.70
2018-05-16T02:04:10.040Z,9.47
2018-05-16T02:06:36.115Z,9.27
2018-05-16T02:09:02.058Z,9.13
2018-05-16T02:11:28.105Z,9.20
2018-05-16T02:13:54.120Z,10.00
2018-05-16T02:16:20.094Z,8.93
2018-05-16T02:18:46.091Z,8.43
2018-05-16T02:21:12.107Z,10.70
2018-05-16T02:23:39.095Z,9.53
2018-05-16T02:26:05.119Z,9.60
2018-05-16T02:28:31.147Z,10.73
2018-05-16T02:30:57.171Z,11.17
2018-05-16T02:33:23.176Z,9.87
2018-05-16T02:35:49.201Z,9.90
2018-05-16T02:38:15.243Z,10.10
2018-05-16T02:40:41.182Z,10.03
2018-05-16T02:43:07.327Z,10.73
2018-05-16T02:45:33.307Z,14.10
2018-05-16T02:47:59.297Z,15.60
2018-05-16T02:50:25.314Z,16.17
2018-05-16T02:52:51.297Z,16.63
2018-05-16T02:55:17.280Z,19.30
2018-05-16T02:57:43.323Z,18.60
2018-05-16T03:00:09.280Z,18.03
2018-05-16T03:02:35.273Z,17.90
2018-05-16T03:05:01.271Z,16.70
2018-05-16T03:07:27.303Z,16.40
2018-05-16T03:09:53.264Z,17.10
2018-05-16T03:12:20.149Z,16.97
2018-05-16T03:14:46.131Z,14.87
2018-05-16T03:17:12.090Z,15.80
2018-05-16T03:19:38.187Z,16.17
2018-05-16T03:22:04.180Z,14.47
2018-05-16T03:24:30.198Z,12.50
2018-05-16T03:26:56.206Z,12.90
2018-05-16T03:29:22.215Z,13.40
2018-05-16T03:31:48.237Z,12.83
2018-05-16T03:34:14.204Z,14.23
2018-05-16T03:36:40.208Z,10.40
2018-05-16T03:39:06.166Z,11.10
2018-05-16T03:41:32.205Z,14.43
2018-05-16T03:43:58.194Z,13.17
2018-05-16T03:46:24.325Z,10.10
2018-05-16T03:48:50.290Z,11.77
2018-05-16T03:51:16.260Z,11.13
2018-05-16T03:53:42.350Z,10.47
2018-05-16T03:56:08.464Z,10.80
2018-05-16T03:58:47.373Z,10.30
2018-05-16T04:01:25.564Z,10.87
2018-05-16T04:04:04.357Z,10.50
2018-05-16T04:06:30.409Z,10.40
2018-05-16T04:08:56.454Z,11.13
2018-05-16T04:11:23.275Z,10.47
2018-05-16T04:13:49.273Z,11.00
2018-05-16T04:16:15.483Z,11.53
2018-05-16T04:18:41.507Z,10.30
2018-05-16T04:21:07.484Z,10.40
2018-05-16T04:23:33.544Z,11.23
2018-05-16T04:25:59.552Z,10.53
2018-05-16T04:28:25.951Z,10.13
2018-05-16T04:30:52.433Z,11.33
2018-05-16T04:33:18.663Z,13.10
2018-05-16T04:35:44.613Z,10.60
2018-05-16T04:38:11.347Z,10.97
2018-05-16T04:40:37.319Z,10.00
2018-05-16T04:43:03.318Z,11.50
2018-05-16T04:45:29.294Z,11.27
2018-05-16T04:47:56.259Z,12.57
2018-05-16T04:50:23.227Z,13.27
2018-05-16T04:52:49.341Z,11.10
2018-05-16T04:55:16.791Z,11.83
2018-05-16T04:57:42.793Z,13.03
2018-05-16T05:00:08.817Z,17.17
2018-05-16T05:02:34.806Z,12.70
2018-05-16T05:05:00.868Z,11.90
2018-05-16T05:07:26.865Z,11.67
2018-05-16T05:09:53.870Z,12.63
2018-05-16T05:12:19.852Z,11.80
2018-05-16T05:14:45.825Z,12.50
2018-05-16T05:17:11.808Z,13.20
2018-05-16T05:19:37.966Z,11.80
2018-05-16T05:22:03.963Z,11.20
2018-05-16T05:24:30.260Z,12.63
2018-05-16T05:26:56.506Z,12.90
2018-05-16T05:29:22.539Z,12.37
2018-05-16T05:31:49.508Z,13.03
2018-05-16T05:34:15.569Z,12.90
2018-05-16T05:36:41.593Z,12.60
2018-05-16T05:39:07.581Z,11.93
2018-05-16T05:41:33.608Z,12.73
2018-05-16T05:44:00.030Z,12.30
2018-05-16T05:46:26.056Z,14.50
2018-05-16T05:48:52.045Z,11.43
2018-05-16T05:51:19.919Z,12.80
2018-05-16T05:53:46.779Z,12.53
2018-05-16T05:56:13.603Z,13.30
2018-05-16T05:58:40.541Z,12.67
2018-05-16T06:01:06.581Z,11.90
2018-05-16T06:03:32.577Z,14.00
2018-05-16T06:05:58.560Z,12.17
2018-05-16T06:08:24.657Z,11.80
2018-05-16T06:10:50.704Z,11.10
2018-05-16T06:13:17.460Z,12.50
2018-05-16T06:15:44.058Z,12.90
2018-05-16T06:18:10.083Z,13.00
2018-05-16T06:20:36.193Z,12.47
2018-05-16T06:23:02.243Z,13.37
2018-05-16T06:25:28.333Z,12.67
2018-05-16T06:27:54.377Z,12.67
2018-05-16T06:30:20.398Z,12.73
2018-05-16T06:32:46.573Z,15.73
2018-05-16T06:35:12.616Z,13.37
2018-05-16T06:37:39.228Z,13.30
2018-05-16T06:40:05.221Z,13.43
2018-05-16T06:42:32.272Z,14.23
2018-05-16T06:44:58.299Z,12.27
2018-05-16T06:47:24.311Z,13.13
2018-05-16T06:49:51.053Z,15.37
2018-05-16T06:52:17.355Z,14.10
2018-05-16T06:54:45.101Z,21.10
2018-05-16T06:57:11.160Z,12.53
2018-05-16T06:59:37.368Z,14.40
2018-05-16T07:02:03.380Z,10.10
2018-05-16T07:04:29.447Z,9.73
2018-05-16T07:06:55.493Z,11.67
2018-05-16T07:09:21.557Z,10.63
2018-05-16T07:11:47.596Z,10.90
2018-05-16T07:14:13.773Z,10.97
2018-05-16T07:16:39.881Z,10.80
2018-05-16T07:19:05.984Z,11.93
2018-05-16T07:21:31.978Z,11.03
2018-05-16T07:23:58.071Z,12.00
2018-05-16T07:26:31.081Z,11.10
2018-05-16T07:28:57.128Z,10.80
2018-05-16T07:31:24.670Z,11.77
2018-05-16T07:33:50.759Z,10.87
2018-05-16T07:36:16.715Z,9.90
2018-05-16T07:38:42.734Z,10.90
2018-05-16T07:41:08.792Z,11.77
2018-05-16T07:43:34.812Z,10.40
2018-05-16T07:46:01.423Z,11.30
2018-05-16T07:48:27.575Z,12.77
2018-05-16T07:50:53.602Z,12.30
2018-05-16T07:53:20.151Z,13.87
2018-05-16T07:55:46.179Z,13.13
2018-05-16T07:58:12.157Z,12.50
2018-05-16T08:00:38.199Z,11.77
2018-05-16T08:03:04.201Z,11.43
2018-05-16T08:05:30.198Z,11.33
2018-05-16T08:07:56.432Z,11.63
2018-05-16T08:10:22.464Z,12.40
2018-05-16T08:12:48.515Z,11.00
2018-05-16T08:15:14.479Z,11.40
2018-05-16T08:17:40.477Z,12.67
2018-05-16T08:20:06.493Z,11.83
2018-05-16T08:22:32.462Z,11.43
2018-05-16T08:24:58.527Z,11.20
2018-05-16T08:27:24.556Z,11.57
2018-05-16T08:29:50.579Z,11.60
2018-05-16T08:32:16.648Z,11.10
2018-05-16T08:34:42.611Z,11.97
2018-05-16T08:37:08.578Z,10.67
2018-05-16T08:39:34.601Z,10.97
2018-05-16T08:42:00.663Z,10.77
2018-05-16T08:44:26.620Z,11.23
2018-05-16T08:46:52.639Z,10.83
2018-05-16T08:49:18.851Z,11.40
2018-05-16T08:51:45.773Z,10.87
2018-05-16T08:54:11.892Z,9.80
2018-05-16T08:56:37.857Z,10.90
2018-05-16T08:59:03.862Z,9.83
2018-05-16T09:01:29.852Z,11.20
2018-05-16T09:03:55.839Z,10.63
2018-05-16T09:06:22.830Z,10.20
2018-05-16T09:08:48.887Z,9.87
2018-05-16T09:11:14.884Z,10.60
2018-05-16T09:13:40.878Z,10.07
2018-05-16T09:16:06.887Z,10.23
2018-05-16T09:18:32.873Z,9.30
2018-05-16T09:20:58.868Z,10.53
2018-05-16T09:23:24.933Z,11.27
2018-05-16T09:25:51.023Z,9.87
2018-05-16T09:28:17.066Z,10.50
2018-05-16T09:30:43.071Z,10.87
2018-05-16T09:33:09.113Z,9.77
2018-05-16T09:35:35.116Z,11.27
2018-05-16T09:38:01.135Z,9.20
2018-05-16T09:40:31.203Z,8.03
2018-05-16T09:42:57.259Z,8.97
2018-05-16T09:45:23.264Z,9.77
2018-05-16T09:47:49.992Z,9.83
2018-05-16T09:50:16.082Z,8.87
2018-05-16T09:52:42.079Z,12.00
2018-05-16T09:55:08.456Z,9.87
2018-05-16T09:57:34.434Z,9.37
2018-05-16T10:00:01.121Z,10.00
2018-05-16T10:02:27.090Z,9.63
2018-05-16T10:04:53.209Z,9.20
2018-05-16T10:07:19.178Z,9.93
2018-05-16T10:09:45.322Z,10.13
2018-05-16T10:12:11.353Z,10.73
2018-05-16T10:14:37.380Z,10.00
2018-05-16T10:17:03.593Z,9.60
2018-05-16T10:19:29.612Z,9.27
2018-05-16T10:21:56.427Z,9.60
2018-05-16T10:24:22.442Z,9.43
2018-05-16T10:26:48.586Z,11.03
2018-05-16T10:29:14.624Z,10.47
2018-05-16T10:31:40.680Z,11.43
2018-05-16T10:34:07.514Z,10.50
2018-05-16T10:36:34.490Z,10.87
2018-05-16T10:39:00.607Z,10.27
2018-05-16T10:41:27.562Z,13.20
2018-05-16T10:43:53.675Z,9.43
2018-05-16T10:46:19.697Z,10.60
2018-05-16T10:48:45.720Z,10.87
2018-05-16T10:51:12.360Z,11.27
2018-05-16T10:53:38.449Z,11.60
2018-05-16T10:56:05.249Z,12.40
2018-05-16T10:58:31.263Z,10.70
2018-05-16T11:00:58.732Z,11.37
2018-05-16T11:03:25.066Z,10.87
2018-05-16T11:05:51.768Z,11.60
2018-05-16T11:08:18.038Z,13.00
2018-05-16T11:10:44.170Z,12.37
2018-05-16T11:13:10.325Z,10.40
2018-05-16T11:15:36.342Z,12.90
2018-05-16T11:18:03.026Z,11.70
2018-05-16T11:20:29.008Z,11.10
2018-05-16T11:22:54.993Z,12.00
2018-05-16T11:25:20.973Z,11.10
2018-05-16T11:27:46.936Z,10.53
2018-05-16T11:30:12.992Z,11.90
2018-05-16T11:32:39.133Z,10.87
2018-05-16T11:35:05.550Z,9.43
2018-05-16T11:37:31.528Z,10.17
2018-05-16T11:39:57.516Z,11.00
2018-05-16T11:42:23.608Z,11.17
2018-05-16T11:44:49.548Z,9.90
2018-05-16T11:47:15.569Z,9.97
2018-05-16T11:49:41.599Z,9.77
2018-05-16T11:52:07.585Z,9.47
2018-05-16T11:54:33.545Z,9.73
2018-05-16T11:56:59.577Z,9.43
2018-05-16T11:59:25.584Z,11.60
2018-05-16T12:01:51.725Z,10.30
2018-05-16T12:04:17.738Z,9.87
2018-05-16T12:06:43.822Z,9.50
2018-05-16T12:09:10.165Z,10.00
2018-05-16T12:11:36.442Z,9.73
2018-05-16T12:14:02.486Z,10.07
2018-05-16T12:16:28.837Z,9.73
2018-05-16T12:18:54.861Z,9.27
2018-05-16T12:21:20.976Z,8.93
2018-05-16T12:23:47.351Z,8.90
2018-05-16T12:26:14.272Z,9.37
2018-05-16T12:28:40.342Z,8.30
2018-05-16T12:31:06.354Z,7.90
2018-05-16T12:33:32.392Z,8.70
2018-05-16T12:35:58.369Z,9.07
2018-05-16T12:38:24.441Z,8.80
2018-05-16T12:40:50.553Z,8.97
2018-05-16T12:43:17.505Z,8.30
2018-05-16T12:45:43.480Z,8.07
2018-05-16T12:48:09.625Z,8.90
2018-05-16T12:50:35.654Z,8.97
2018-05-16T12:53:01.716Z,8.23
2018-05-16T12:55:27.773Z,8.97
2018-05-16T12:57:53.851Z,9.27
2018-05-16T13:00:19.873Z,8.50
2018-05-16T13:02:45.943Z,10.57
2018-05-16T13:05:12.010Z,9.93
2018-05-16T13:07:37.961Z,10.63
2018-05-16T13:10:03.931Z,8.80
2018-05-16T13:12:29.911Z,9.13
2018-05-16T13:14:55.940Z,9.63
2018-05-16T13:17:21.968Z,9.90
2018-05-16T13:19:48.062Z,9.83
2018-05-16T13:22:14.151Z,9.60
2018-05-16T13:24:40.295Z,9.33
2018-05-16T13:27:06.262Z,10.40
2018-05-16T13:29:32.271Z,9.07
2018-05-16T13:32:05.271Z,9.33
2018-05-16T13:34:31.343Z,7.80
2018-05-16T13:36:57.318Z,8.07
2018-05-16T13:39:23.799Z,8.87
2018-05-16T13:41:50.019Z,8.43
2018-05-16T13:44:16.079Z,8.40
2018-05-16T13:46:42.704Z,8.20
2018-05-16T13:49:08.690Z,7.90
2018-05-16T13:51:34.723Z,7.97
2018-05-16T13:54:01.017Z,8.53
2018-05-16T13:56:27.088Z,8.80
2018-05-16T13:58:53.067Z,9.23
2018-05-16T14:01:19.037Z,8.27
2018-05-16T14:03:45.072Z,10.90
2018-05-16T14:06:11.137Z,8.77
2018-05-16T14:08:37.160Z,8.30
2018-05-16T14:11:03.172Z,10.07
2018-05-16T14:13:29.193Z,9.93
2018-05-16T14:15:56.010Z,11.93
2018-05-16T14:18:21.976Z,9.43
2018-05-16T14:20:47.957Z,10.83
2018-05-16T14:23:13.921Z,9.80
2018-05-16T14:25:39.897Z,10.67
2018-05-16T14:28:05.875Z,10.93
2018-05-16T14:30:31.899Z,11.50
2018-05-16T14:32:57.869Z,13.07
2018-05-16T14:35:23.892Z,10.73
2018-05-16T14:37:49.868Z,12.20
2018-05-16T14:40:15.840Z,12.07
2018-05-16T14:42:41.936Z,10.90
2018-05-16T14:45:07.908Z,13.70
2018-05-16T14:47:33.995Z,12.83
2018-05-16T14:49:59.990Z,12.40
2018-05-16T14:52:26.605Z,13.27
2018-05-16T14:54:52.887Z,13.93
2018-05-16T14:57:18.966Z,14.10
2018-05-16T14:59:44.996Z,13.40
2018-05-16T15:02:11.072Z,15.30
2018-05-16T15:04:37.080Z,15.83
2018-05-16T15:07:03.589Z,15.30
2018-05-16T15:09:30.373Z,14.40
2018-05-16T15:11:56.476Z,12.30
2018-05-16T15:14:22.543Z,18.40
2018-05-16T15:16:49.582Z,13.47
2018-05-16T15:19:15.545Z,12.97
2018-05-16T15:21:41.657Z,12.00
2018-05-16T15:24:07.839Z,11.70
2018-05-16T15:26:33.911Z,9.93
2018-05-16T15:29:00.603Z,11.13
2018-05-16T15:31:26.826Z,11.60
2018-05-16T15:33:53.925Z,11.83
2018-05-16T15:36:20.534Z,10.90
2018-05-16T15:38:47.123Z,11.17
2018-05-16T15:41:13.315Z,10.53
2018-05-16T15:43:39.397Z,10.70
2018-05-16T15:46:05.401Z,10.23
2018-05-16T15:48:32.519Z,11.53
2018-05-16T16:07:44.306Z,8.00
2018-05-16T16:10:10.350Z,8.57
2018-05-16T16:12:37.467Z,8.83
2018-05-16T16:15:03.516Z,9.27
2018-05-16T16:17:30.447Z,8.23
2018-05-16T16:19:56.364Z,8.67
2018-05-16T16:22:23.344Z,8.83
2018-05-16T16:24:51.196Z,8.03
2018-05-16T16:27:17.196Z,7.60
2018-05-16T16:29:43.350Z,8.07
2018-05-16T16:32:09.433Z,7.50
2018-05-16T16:34:35.564Z,7.17
2018-05-16T16:37:01.681Z,7.73
2018-05-16T16:39:27.749Z,7.73
2018-05-16T16:41:53.776Z,8.57
2018-05-16T16:44:19.792Z,7.60
2018-05-16T16:46:45.828Z,6.80
2018-05-16T16:49:11.884Z,7.80
2018-05-16T16:51:38.384Z,9.13
2018-05-16T16:54:04.491Z,7.37
2018-05-16T16:56:31.052Z,7.33
2018-05-16T16:58:57.175Z,8.67
2018-05-16T17:01:23.297Z,11.93
2018-05-16T17:03:49.441Z,9.67
2018-05-16T17:06:15.454Z,8.77
2018-05-16T17:08:41.556Z,10.13
2018-05-16T17:11:08.487Z,10.27
2018-05-16T17:13:35.927Z,11.60
2018-05-16T17:16:03.344Z,8.83
2018-05-16T17:18:30.513Z,13.67
2018-05-16T17:20:56.560Z,15.43
2018-05-16T17:23:22.746Z,10.60
2018-05-16T17:25:48.823Z,10.00
2018-05-16T17:28:16.429Z,9.90
2018-05-16T17:30:42.441Z,10.17
2018-05-16T17:33:08.582Z,11.43
2018-05-16T17:35:35.126Z,10.87
2018-05-16T17:38:01.470Z,10.83
2018-05-16T17:40:27.469Z,12.13
2018-05-16T17:42:54.021Z,12.20
2018-05-16T17:45:20.067Z,12.20
2018-05-16T17:47:46.235Z,15.73
2018-05-16T17:50:12.248Z,11.83
2018-05-16T17:52:38.272Z,13.20
2018-05-16T17:55:04.609Z,12.40
2018-05-16T17:57:30.639Z,16.97
2018-05-16T17:59:56.705Z,21.03
2018-05-16T18:02:22.689Z,12.63
2018-05-16T18:04:48.729Z,13.57
2018-05-16T18:07:14.716Z,18.43
2018-05-16T18:09:40.875Z,12.60
2018-05-16T18:12:06.879Z,10.93
2018-05-16T18:17:40.039Z,30.90
2018-05-16T18:20:06.064Z,13.17
2018-05-16T18:22:32.128Z,12.10
2018-05-16T18:24:58.136Z,11.13
2018-05-16T18:27:24.236Z,11.20
2018-05-16T18:29:50.296Z,10.97
2018-05-16T18:32:16.316Z,10.30
2018-05-16T18:34:43.466Z,11.73
2018-05-16T18:37:09.477Z,11.87
2018-05-16T18:39:35.499Z,13.77
2018-05-16T18:42:01.547Z,13.20
2018-05-16T18:44:27.580Z,11.13
2018-05-16T18:46:53.594Z,11.80
2018-05-16T18:49:19.585Z,11.53
2018-05-16T18:51:45.623Z,12.17
2018-05-16T18:54:11.647Z,11.60
2018-05-16T18:56:37.748Z,14.00
2018-05-16T18:59:03.771Z,11.30
2018-05-16T19:01:29.841Z,12.63
2018-05-16T19:03:55.932Z,11.47
2018-05-16T19:06:21.932Z,11.27
2018-05-16T19:08:49.741Z,12.63
2018-05-16T19:11:15.981Z,12.57
2018-05-16T19:13:45.827Z,11.50
2018-05-16T19:16:12.504Z,14.70
2018-05-16T19:18:38.562Z,14.53
2018-05-16T19:21:05.122Z,13.77
2018-05-16T19:23:31.132Z,14.37
2018-05-16T19:25:57.284Z,12.43
2018-05-16T19:28:24.404Z,13.00
2018-05-16T19:30:50.476Z,12.57
2018-05-16T19:33:16.510Z,12.13
2018-05-16T19:35:42.636Z,14.60
2018-05-16T19:38:08.682Z,15.80
2018-05-16T19:40:34.880Z,12.20
2018-05-16T19:43:00.780Z,11.40
2018-05-16T19:45:26.772Z,12.57
2018-05-16T19:47:53.175Z,13.03
2018-05-16T19:50:19.962Z,11.90
2018-05-16T19:52:46.221Z,12.77
2018-05-16T19:55:12.409Z,12.27
2018-05-16T19:57:38.720Z,13.10
2018-05-16T20:00:04.650Z,13.00
2018-05-16T20:02:30.974Z,12.60
2018-05-16T20:04:57.594Z,13.47
2018-05-16T20:07:23.689Z,13.00
2018-05-16T20:09:50.246Z,12.87
2018-05-16T20:12:16.504Z,12.57
2018-05-16T20:14:45.576Z,12.70
2018-05-16T20:17:11.676Z,12.83
2018-05-16T20:33:51.481Z,12.33
2018-05-16T20:36:20.974Z,13.17
2018-05-16T20:38:47.431Z,12.60
2018-05-16T20:41:14.378Z,13.23
2018-05-16T20:43:42.001Z,13.80
2018-05-16T20:46:10.440Z,12.80
2018-05-16T20:48:36.546Z,14.47
2018-05-16T20:51:03.429Z,13.50
2018-05-16T20:53:30.666Z,12.53
2018-05-16T20:55:57.100Z,11.97
2018-05-16T20:58:23.834Z,13.13
2018-05-16T21:00:50.858Z,12.60
2018-05-16T21:03:20.341Z,12.67
2018-05-16T21:05:46.546Z,12.30
2018-05-16T21:08:13.024Z,12.73
2018-05-16T21:10:39.511Z,12.47
2018-05-16T21:13:05.587Z,14.17
2018-05-16T21:15:31.689Z,13.23
2018-05-16T21:17:57.813Z,12.13
2018-05-16T21:20:24.945Z,12.67
2018-05-16T21:22:52.910Z,12.70
2018-05-16T21:25:19.189Z,14.47
2018-05-16T21:27:45.235Z,14.17
2018-05-16T21:30:11.221Z,13.13
2018-05-16T21:32:37.208Z,12.30
2018-05-16T21:35:03.205Z,12.47
2018-05-16T21:37:29.262Z,13.10
2018-05-16T21:39:55.438Z,13.73
2018-05-16T21:42:21.571Z,14.20
2018-05-16T21:44:47.577Z,12.80
2018-05-16T21:47:13.618Z,13.03
2018-05-16T21:49:39.606Z,12.30
2018-05-16T21:52:05.625Z,12.90
2018-05-16T21:54:32.001Z,12.90
2018-05-16T21:56:58.070Z,12.57
2018-05-16T21:59:24.940Z,13.37
2018-05-16T22:01:51.188Z,13.43
2018-05-16T22:04:17.206Z,13.13
2018-05-16T22:06:43.449Z,17.90
2018-05-16T22:09:10.119Z,14.73
2018-05-16T22:11:36.146Z,14.80
2018-05-16T22:14:02.149Z,15.47
2018-05-16T22:16:29.521Z,16.67
2018-05-16T22:18:55.596Z,16.83
2018-05-16T22:21:21.628Z,18.57
2018-05-16T22:23:47.613Z,16.87
2018-05-16T22:26:13.588Z,14.07
2018-05-16T22:28:39.733Z,19.23
2018-05-16T22:31:11.807Z,18.23
2018-05-16T22:33:43.760Z,16.80
2018-05-16T22:36:15.742Z,20.47
2018-05-16T22:38:47.774Z,18.07
2018-05-16T22:41:19.906Z,18.67
2018-05-16T22:43:47.772Z,19.13
2018-05-16T22:46:15.580Z,20.03
2018-05-16T22:48:41.590Z,19.37
2018-05-16T22:51:07.599Z,18.50
2018-05-16T22:53:40.444Z,16.97
2018-05-16T22:56:06.424Z,18.33
2018-05-16T22:58:32.527Z,17.53
2018-05-16T23:00:58.511Z,18.40
2018-05-16T23:03:25.372Z,19.07
2018-05-16T23:05:51.422Z,20.67
2018-05-16T23:08:17.392Z,19.30
2018-05-16T23:10:43.384Z,20.70
2018-05-16T23:13:09.906Z,19.67
2018-05-16T23:15:35.928Z,20.73
2018-05-16T23:18:01.999Z,21.77
2018-05-16T23:20:27.997Z,20.87
2018-05-16T23:22:54.043Z,21.70
2018-05-16T23:25:20.079Z,20.20
2018-05-16T23:27:46.066Z,23.00
2018-05-16T23:30:12.219Z,24.07
2018-05-16T23:32:38.315Z,23.70
2018-05-16T23:35:05.003Z,23.03
2018-05-16T23:37:30.995Z,22.60
2018-05-16T23:39:57.063Z,24.90
2018-05-16T23:42:23.062Z,23.80
2018-05-16T23:44:49.145Z,24.40
2018-05-16T23:47:15.182Z,24.20
2018-05-16T23:49:41.371Z,25.80
2018-05-16T23:52:07.433Z,27.67
2018-05-16T23:54:33.504Z,26.70
2018-05-16T23:56:59.522Z,25.90
2018-05-16T23:59:25.528Z,24.90
